Time;durP1;ratioP1;P1;durP2;ratioP2;P2;SDS_P1;SDS_P2;PMS_P1;PMS_P2;Temp;Humidity;BMP_temperature;BMP_pressure;BME280_temperature;BME280_humidity;BME280_pressure;Samples;Min_cycle;Max_cycle;Signal;HPM_P1;HPM_P2
2021/12/25 00:02:19;;;;;;;;;;;1.00;99.90;;;;;;5037094;28;19909;-42
2021/12/25 00:04:44;;;;;;;;;;;1.00;99.90;;;;;;5040189;28;19954;-41
2021/12/25 00:07:10;;;;;;;;;;;1.00;99.90;;;;;;5039532;28;19916;-41
2021/12/25 00:09:35;;;;;;;;;;;0.90;99.90;;;;;;5033236;28;19991;-43
2021/12/25 00:12:01;;;;;;;;;;;0.90;99.90;;;;;;5033573;28;20252;-41
2021/12/25 00:14:26;;;;;;;;;;;0.90;99.90;;;;;;5032842;28;19905;-42
2021/12/25 00:16:53;;;;;;;;;;;0.80;99.90;;;;;;5031908;28;19909;-41
2021/12/25 00:19:18;;;;;;;;;;;0.80;99.90;;;;;;5032799;28;19912;-41
2021/12/25 00:21:44;;;;;;;;;;;0.70;99.90;;;;;;5045788;28;19909;-41
2021/12/25 00:24:10;;;;;;;;;;;0.70;99.90;;;;;;5051793;28;19908;-41
2021/12/25 00:26:51;;;;;;;;;;;0.60;99.90;;;;;;5052495;28;20314;-41
2021/12/25 00:29:37;;;;;;;;;;;0.60;99.90;;;;;;5052803;28;19967;-41
2021/12/25 00:34:35;;;;;;;;;;;0.50;99.90;;;;;;5032817;28;19905;-40
2021/12/25 00:37:01;;;;;;;;;;;0.50;99.90;;;;;;5031855;28;19952;-41
2021/12/25 00:39:29;;;;;;;;;;;0.40;99.90;;;;;;5032678;28;19932;-41
2021/12/25 00:41:58;;;;;;;;;;;0.40;99.90;;;;;;5048680;28;19939;-41
2021/12/25 00:44:24;;;;;;;;;;;0.40;99.90;;;;;;5052173;28;19905;-42
2021/12/25 00:46:49;;;;;;;;;;;0.40;99.90;;;;;;5054899;28;19927;-41
2021/12/25 00:49:15;;;;;;;;;;;0.30;99.90;;;;;;5056319;28;19971;-41
2021/12/25 00:51:40;;;;;;;;;;;0.30;99.90;;;;;;5040936;28;19915;-41
2021/12/25 00:54:06;;;;;;;;;;;0.30;99.90;;;;;;5036665;28;20004;-42
2021/12/25 00:56:31;;;;;;;;;;;0.20;99.90;;;;;;5036071;28;20471;-41
2021/12/25 00:58:56;;;;;;;;;;;0.20;99.90;;;;;;5035482;28;19955;-42
2021/12/25 01:01:22;;;;;;;;;;;0.10;99.90;;;;;;5050681;28;20379;-40
2021/12/25 01:03:48;;;;;;;;;;;0.10;99.90;;;;;;5055818;28;19904;-41
2021/12/25 01:06:14;;;;;;;;;;;0.10;99.90;;;;;;5055704;28;19995;-41
2021/12/25 01:08:39;;;;;;;;;;;0.00;99.90;;;;;;5055848;28;20478;-41
2021/12/25 01:11:05;;;;;;;;;;;0.00;99.90;;;;;;5047821;28;19913;-42
2021/12/25 01:13:36;;;;;;;;;;;0.00;99.90;;;;;;5047323;28;20003;-40
2021/12/25 01:24:23;;;;;;;;;;;-0.20;99.90;;;;;;5036178;28;20363;-41
2021/12/25 01:27:05;;;;;;;;;;;-0.20;99.90;;;;;;5035060;28;19916;-41
2021/12/25 01:48:04;;;;;;;;;;;-0.40;99.90;;;;;;5035080;28;19915;-41
2021/12/25 01:50:30;;;;;;;;;;;-0.40;99.90;;;;;;5039885;28;19908;-41
2021/12/25 01:52:56;;;;;;;;;;;-0.50;99.90;;;;;;5054939;28;19955;-41
2021/12/25 01:55:23;;;;;;;;;;;-0.40;99.90;;;;;;5054644;28;19944;-41
2021/12/25 01:57:48;;;;;;;;;;;-0.50;99.90;;;;;;5053823;28;19917;-41
2021/12/25 02:00:17;;;;;;;;;;;-0.60;99.90;;;;;;5049605;28;19916;-40
2021/12/25 02:02:43;;;;;;;;;;;-0.60;99.90;;;;;;5034530;28;19932;-41
2021/12/25 02:05:09;;;;;;;;;;;-0.60;99.90;;;;;;5034945;28;19906;-41
2021/12/25 02:07:35;;;;;;;;;;;-0.70;99.90;;;;;;5035021;28;19905;-42
2021/12/25 02:10:01;;;;;;;;;;;-0.70;99.90;;;;;;5037249;28;20340;-42
2021/12/25 02:12:26;;;;;;;;;;;-0.70;99.90;;;;;;5054527;28;20434;-41
2021/12/25 02:14:52;;;;;;;;;;;-0.80;99.90;;;;;;5052615;28;19905;-40
2021/12/25 02:17:25;;;;;;;;;;;-0.80;99.90;;;;;;5054714;28;20507;-41
2021/12/25 02:20:07;;;;;;;;;;;-0.90;99.90;;;;;;5050174;28;19924;-41
2021/12/25 02:22:33;;;;;;;;;;;-0.90;99.90;;;;;;5049657;28;19915;-41
2021/12/25 02:24:59;;;;;;;;;;;-0.90;99.90;;;;;;5038771;28;19944;-41
2021/12/25 02:27:24;;;;;;;;;;;-0.90;99.90;;;;;;5046491;28;19959;-41
2021/12/25 02:29:50;;;;;;;;;;;-1.00;99.90;;;;;;5044241;28;19912;-41
2021/12/25 02:32:15;;;;;;;;;;;-1.00;99.90;;;;;;5054491;28;19905;-41
2021/12/25 02:34:41;;;;;;;;;;;-1.00;99.90;;;;;;5054445;28;19911;-41
2021/12/25 02:37:06;;;;;;;;;;;-1.00;99.90;;;;;;5053924;28;19999;-42
2021/12/25 02:39:31;;;;;;;;;;;-1.00;99.90;;;;;;5046707;28;19963;-41
2021/12/25 02:41:57;;;;;;;;;;;-1.00;99.90;;;;;;5034119;28;19912;-41
2021/12/25 02:44:22;;;;;;;;;;;-1.00;99.90;;;;;;5033897;28;20371;-41
2021/12/25 02:46:52;;;;;;;;;;;-1.00;99.90;;;;;;5034203;28;19905;-41
2021/12/25 02:49:18;;;;;;;;;;;-1.10;99.90;;;;;;5039031;28;19916;-41
2021/12/25 02:51:44;;;;;;;;;;;-1.00;99.90;;;;;;5053175;28;19913;-42
2021/12/25 02:54:10;;;;;;;;;;;-1.00;99.90;;;;;;5054080;28;20007;-41
2021/12/25 02:56:36;;;;;;;;;;;-1.10;99.90;;;;;;5053819;28;19964;-41
2021/12/25 02:59:01;;;;;;;;;;;-1.10;99.90;;;;;;5051489;28;19925;-41
2021/12/25 03:01:27;;;;;;;;;;;-1.10;99.90;;;;;;5053609;28;19962;-41
2021/12/25 03:03:53;;;;;;;;;;;-1.20;99.90;;;;;;5053796;28;19959;-41
2021/12/25 03:06:18;;;;;;;;;;;-1.20;99.70;;;;;;5053471;28;20008;-43
2021/12/25 03:08:44;;;;;;;;;;;-1.20;99.70;;;;;;5052861;28;19956;-42
2021/12/25 03:11:10;;;;;;;;;;;-1.30;99.60;;;;;;5033305;28;20272;-42
2021/12/25 03:13:45;;;;;;;;;;;-1.30;99.40;;;;;;5033615;28;19992;-43
2021/12/25 03:16:11;;;;;;;;;;;-1.30;99.00;;;;;;5033784;28;20348;-43
2021/12/25 03:18:43;;;;;;;;;;;-1.30;98.90;;;;;;5033255;28;19958;-43
2021/12/25 03:21:09;;;;;;;;;;;-1.30;98.30;;;;;;5053359;28;19908;-43
2021/12/25 03:23:36;;;;;;;;;;;-1.40;99.10;;;;;;5053367;28;19905;-47
2021/12/25 03:26:02;;;;;;;;;;;-1.40;99.70;;;;;;5053052;28;19911;-43
2021/12/25 03:28:31;;;;;;;;;;;-1.40;99.60;;;;;;5053617;28;20395;-42
2021/12/25 03:31:04;;;;;;;;;;;-1.50;99.10;;;;;;5048469;28;19916;-45
2021/12/25 03:33:30;;;;;;;;;;;-1.50;99.50;;;;;;5053049;28;20031;-43
2021/12/25 03:35:55;;;;;;;;;;;-1.50;99.20;;;;;;5050809;28;19982;-46
2021/12/25 03:38:21;;;;;;;;;;;-1.50;99.20;;;;;;5041297;28;19921;-43
2021/12/25 03:40:47;;;;;;;;;;;-1.60;98.80;;;;;;5046640;28;20429;-44
2021/12/25 03:43:13;;;;;;;;;;;-1.60;99.10;;;;;;5053213;28;19928;-43
2021/12/25 03:45:39;;;;;;;;;;;-1.60;99.10;;;;;;5052859;28;19956;-44
2021/12/25 03:48:42;;;;;;;;;;;-1.70;99.20;;;;;;5052665;28;19915;-43
2021/12/25 03:59:00;;;;;;;;;;;-1.70;99.50;;;;;;5033043;28;19982;-43
2021/12/25 04:01:42;;;;;;;;;;;-1.80;99.80;;;;;;5033309;28;20348;-43
2021/12/25 04:06:46;;;;;;;;;;;-1.80;99.80;;;;;;5032957;28;19909;-44
2021/12/25 04:09:34;;;;;;;;;;;-1.80;99.80;;;;;;5032325;28;19928;-43
2021/12/25 04:12:00;;;;;;;;;;;-1.80;99.90;;;;;;5052038;28;19922;-43
2021/12/25 04:14:26;;;;;;;;;;;-1.80;99.30;;;;;;5052219;28;19992;-44
2021/12/25 04:16:51;;;;;;;;;;;-1.90;99.50;;;;;;5052580;28;19991;-43
2021/12/25 04:19:17;;;;;;;;;;;-1.90;99.40;;;;;;5051585;28;19986;-45
2021/12/25 04:21:59;;;;;;;;;;;-1.90;99.50;;;;;;5031561;28;19905;-44
2021/12/25 04:24:26;;;;;;;;;;;-1.90;98.90;;;;;;5032628;28;19905;-44
2021/12/25 04:26:52;;;;;;;;;;;-1.90;99.50;;;;;;5032564;28;19940;-43
2021/12/25 04:29:36;;;;;;;;;;;-1.90;99.90;;;;;;5032822;28;19994;-43
2021/12/25 05:02:07;;;;;;;;;;;-2.20;99.90;;;;;;5032553;28;19983;-43
2021/12/25 05:04:42;;;;;;;;;;;-2.10;99.90;;;;;;5032031;28;19905;-43
2021/12/25 05:07:08;;;;;;;;;;;-2.20;99.90;;;;;;5032448;28;19906;-43
2021/12/25 05:09:34;;;;;;;;;;;-2.20;99.90;;;;;;5033315;28;19915;-42
2021/12/25 05:11:59;;;;;;;;;;;-2.20;99.90;;;;;;5031627;28;19909;-43
2021/12/25 05:14:25;;;;;;;;;;;-2.20;99.90;;;;;;5032434;28;20283;-42
2021/12/25 05:16:52;;;;;;;;;;;-2.20;99.90;;;;;;5032119;28;20402;-43
2021/12/25 05:19:18;;;;;;;;;;;-2.30;99.90;;;;;;5042482;28;19917;-43
2021/12/25 05:21:44;;;;;;;;;;;-2.20;99.90;;;;;;5051926;28;19908;-42
2021/12/25 05:24:09;;;;;;;;;;;-2.30;99.90;;;;;;5052047;28;19950;-42
2021/12/25 05:26:35;;;;;;;;;;;-2.30;99.90;;;;;;5051379;28;19913;-43
2021/12/25 05:29:01;;;;;;;;;;;-2.30;99.90;;;;;;5043283;28;19954;-42
2021/12/25 05:31:28;;;;;;;;;;;-2.30;99.90;;;;;;5032020;28;19905;-42
2021/12/25 05:33:54;;;;;;;;;;;-2.30;99.90;;;;;;5033858;28;20000;-43
2021/12/25 05:36:19;;;;;;;;;;;-2.30;99.90;;;;;;5035707;28;20407;-42
2021/12/25 05:38:45;;;;;;;;;;;-2.30;99.90;;;;;;5041197;28;19916;-42
2021/12/25 05:41:11;;;;;;;;;;;-2.30;99.90;;;;;;5055093;28;19911;-42
2021/12/25 05:43:37;;;;;;;;;;;-2.40;99.90;;;;;;5055376;28;19904;-42
2021/12/25 05:46:03;;;;;;;;;;;-2.40;99.90;;;;;;5054868;28;19905;-44
2021/12/25 05:48:28;;;;;;;;;;;-2.40;99.90;;;;;;5051150;28;19909;-43
2021/12/25 05:50:53;;;;;;;;;;;-2.40;99.90;;;;;;5050578;28;19920;-42
2021/12/25 05:53:19;;;;;;;;;;;-2.40;99.90;;;;;;5035655;28;19909;-42
2021/12/25 05:55:44;;;;;;;;;;;-2.40;99.90;;;;;;5043339;28;19920;-42
2021/12/25 05:58:10;;;;;;;;;;;-2.40;99.90;;;;;;5055015;28;19923;-42
2021/12/25 06:00:36;;;;;;;;;;;-2.50;99.90;;;;;;5054241;28;19936;-42
2021/12/25 06:03:03;;;;;;;;;;;-2.50;99.90;;;;;;5055181;28;19991;-42
2021/12/25 06:05:28;;;;;;;;;;;-2.50;99.90;;;;;;5053226;28;19909;-41
2021/12/25 06:07:54;;;;;;;;;;;-2.50;99.90;;;;;;5054251;28;20653;-42
2021/12/25 06:10:19;;;;;;;;;;;-2.50;99.90;;;;;;5054879;28;19913;-43
2021/12/25 06:12:47;;;;;;;;;;;-2.50;99.90;;;;;;5054868;28;20003;-43
2021/12/25 06:15:14;;;;;;;;;;;-2.50;99.70;;;;;;5054316;28;19909;-42
2021/12/25 06:17:39;;;;;;;;;;;-2.60;99.90;;;;;;5054299;28;20341;-41
2021/12/25 06:20:05;;;;;;;;;;;-2.60;99.60;;;;;;5054940;28;19904;-41
2021/12/25 06:22:31;;;;;;;;;;;-2.60;99.70;;;;;;5054097;28;19905;-42
2021/12/25 06:24:57;;;;;;;;;;;-2.70;99.50;;;;;;5054534;28;19911;-41
2021/12/25 06:27:22;;;;;;;;;;;-2.70;99.30;;;;;;5054679;28;20402;-42
2021/12/25 06:29:49;;;;;;;;;;;-2.70;99.00;;;;;;5053862;28;19947;-42
2021/12/25 06:32:15;;;;;;;;;;;-2.80;99.20;;;;;;5054666;28;19950;-42
2021/12/25 06:34:41;;;;;;;;;;;-2.80;99.00;;;;;;5054334;28;19904;-42
2021/12/25 06:37:07;;;;;;;;;;;-2.80;98.90;;;;;;5053651;28;19928;-42
2021/12/25 06:39:32;;;;;;;;;;;-2.80;97.90;;;;;;5054311;28;19999;-41
2021/12/25 06:41:58;;;;;;;;;;;-2.80;98.60;;;;;;5054215;28;20271;-41
2021/12/25 06:44:25;;;;;;;;;;;-2.80;98.40;;;;;;5053385;28;19917;-42
2021/12/25 06:46:51;;;;;;;;;;;-2.80;98.20;;;;;;5053990;28;19904;-42
2021/12/25 06:49:18;;;;;;;;;;;-2.90;98.30;;;;;;5053732;28;19905;-41
2021/12/25 06:51:43;;;;;;;;;;;-2.90;98.20;;;;;;5053838;28;20363;-42
2021/12/25 06:54:08;;;;;;;;;;;-2.90;98.20;;;;;;5054198;28;19911;-41
2021/12/25 06:56:34;;;;;;;;;;;-2.90;98.10;;;;;;5022317;28;19917;-41
2021/12/25 06:58:59;;;;;;;;;;;-2.90;98.60;;;;;;5014328;28;19913;-41
2021/12/25 07:01:25;;;;;;;;;;;-2.90;97.80;;;;;;5014319;28;19912;-41
2021/12/25 07:03:50;;;;;;;;;;;-2.90;98.00;;;;;;5013567;28;20436;-42
2021/12/25 07:06:16;;;;;;;;;;;-2.90;98.20;;;;;;5014392;28;19973;-41
2021/12/25 07:08:41;;;;;;;;;;;-2.90;98.40;;;;;;5013747;28;19909;-42
2021/12/25 07:11:07;;;;;;;;;;;-3.00;98.20;;;;;;5013676;28;19921;-41
2021/12/25 07:13:32;;;;;;;;;;;-2.90;98.00;;;;;;5013729;28;19905;-41
2021/12/25 07:15:57;;;;;;;;;;;-3.00;98.20;;;;;;5013687;28;19949;-41
2021/12/25 07:18:23;;;;;;;;;;;-3.00;98.10;;;;;;5012998;28;19918;-41
2021/12/25 07:20:50;;;;;;;;;;;-3.00;98.50;;;;;;5013681;28;19937;-42
2021/12/25 07:23:16;;;;;;;;;;;-3.00;98.60;;;;;;5014018;28;19996;-41
2021/12/25 07:25:41;;;;;;;;;;;-3.00;98.40;;;;;;5013153;28;19948;-40
2021/12/25 07:28:07;;;;;;;;;;;-3.00;98.50;;;;;;5013876;28;19951;-42
2021/12/25 07:30:33;;;;;;;;;;;-3.00;98.60;;;;;;5013644;28;19948;-40
2021/12/25 07:32:59;;;;;;;;;;;-3.00;98.40;;;;;;5013029;28;20085;-40
2021/12/25 07:35:25;;;;;;;;;;;-3.00;98.80;;;;;;5013845;28;19905;-41
2021/12/25 07:37:51;;;;;;;;;;;-3.00;98.90;;;;;;5013215;28;19921;-40
2021/12/25 07:40:17;;;;;;;;;;;-3.00;99.00;;;;;;5013230;28;19905;-41
2021/12/25 07:42:42;;;;;;;;;;;-3.00;99.00;;;;;;5013382;28;19912;-42
2021/12/25 07:45:08;;;;;;;;;;;-3.10;99.20;;;;;;5013411;28;19905;-40
2021/12/25 07:47:35;;;;;;;;;;;-3.10;99.30;;;;;;5013027;28;19916;-40
2021/12/25 07:50:02;;;;;;;;;;;-3.10;99.50;;;;;;5013446;28;20312;-41
2021/12/25 07:52:28;;;;;;;;;;;-3.10;99.40;;;;;;5012956;28;19906;-41
2021/12/25 07:54:54;;;;;;;;;;;-3.10;99.50;;;;;;5012968;28;19909;-40
2021/12/25 07:57:19;;;;;;;;;;;-3.10;99.50;;;;;;5012723;28;19917;-41
2021/12/25 07:59:45;;;;;;;;;;;-3.10;99.60;;;;;;5012551;28;19913;-41
2021/12/25 08:02:11;;;;;;;;;;;-3.10;99.70;;;;;;5013289;28;19937;-41
2021/12/25 08:04:36;;;;;;;;;;;-3.10;99.70;;;;;;5013267;28;19960;-40
2021/12/25 08:07:02;;;;;;;;;;;-3.10;99.80;;;;;;5012648;28;20407;-41
2021/12/25 08:09:29;;;;;;;;;;;-3.10;99.90;;;;;;5013200;28;19905;-40
2021/12/25 08:11:58;;;;;;;;;;;-3.10;99.90;;;;;;5012832;28;19914;-41
2021/12/25 08:14:25;;;;;;;;;;;-3.10;99.90;;;;;;5012859;28;19951;-40
2021/12/25 08:16:55;;;;;;;;;;;-3.00;99.90;;;;;;5012735;28;19909;-40
2021/12/25 08:19:21;;;;;;;;;;;-3.00;99.90;;;;;;5012631;28;19913;-40
2021/12/25 08:21:47;;;;;;;;;;;-3.00;99.90;;;;;;5011654;28;19912;-41
2021/12/25 08:24:12;;;;;;;;;;;-3.00;99.90;;;;;;5013187;28;20380;-39
2021/12/25 08:26:38;;;;;;;;;;;-3.00;99.90;;;;;;5012772;28;20003;-40
2021/12/25 08:29:03;;;;;;;;;;;-3.00;99.90;;;;;;5012614;28;19909;-40
2021/12/25 08:31:29;;;;;;;;;;;-3.00;99.90;;;;;;5012961;28;19906;-39
2021/12/25 08:33:54;;;;;;;;;;;-3.00;99.90;;;;;;5012400;28;19913;-41
2021/12/25 08:36:20;;;;;;;;;;;-3.00;99.90;;;;;;5012672;28;19913;-43
2021/12/25 08:38:45;;;;;;;;;;;-2.90;99.90;;;;;;5012303;28;20011;-41
2021/12/25 08:41:10;;;;;;;;;;;-2.90;99.90;;;;;;5036070;28;19908;-40
2021/12/25 08:43:45;;;;;;;;;;;-2.80;99.90;;;;;;5034523;28;20417;-40
2021/12/25 08:46:16;;;;;;;;;;;-2.70;99.70;;;;;;5032683;28;20008;-41
2021/12/25 08:48:41;;;;;;;;;;;-2.70;99.90;;;;;;5051227;28;20335;-40
2021/12/25 08:51:07;;;;;;;;;;;-2.70;99.70;;;;;;5052238;28;20078;-39
2021/12/25 08:53:33;;;;;;;;;;;-2.70;99.70;;;;;;5052503;28;20283;-41
2021/12/25 08:55:59;;;;;;;;;;;-2.60;99.70;;;;;;5035967;28;19917;-41
2021/12/25 08:58:25;;;;;;;;;;;-2.60;99.70;;;;;;5032425;28;20380;-38
2021/12/25 09:00:55;;;;;;;;;;;-2.60;99.30;;;;;;5031840;28;19964;-42
2021/12/25 09:03:21;;;;;;;;;;;-2.50;99.80;;;;;;5032105;28;19909;-40
2021/12/25 09:05:47;;;;;;;;;;;-2.40;99.30;;;;;;5042430;28;20003;-40
2021/12/25 09:08:12;;;;;;;;;;;-2.30;99.30;;;;;;5038329;28;20008;-40
2021/12/25 09:10:38;;;;;;;;;;;-2.30;99.20;;;;;;5035391;28;19952;-40
2021/12/25 09:13:03;;;;;;;;;;;-2.20;99.10;;;;;;5036015;28;19947;-40
2021/12/25 09:15:29;;;;;;;;;;;-2.20;98.70;;;;;;5034191;28;19952;-41
2021/12/25 09:17:54;;;;;;;;;;;-2.20;98.80;;;;;;5028992;28;19964;-40
2021/12/25 09:20:20;;;;;;;;;;;-2.10;98.80;;;;;;5033468;28;19905;-40
2021/12/25 09:22:46;;;;;;;;;;;-2.00;98.70;;;;;;5036804;28;19916;-41
2021/12/25 09:25:12;;;;;;;;;;;-2.00;98.60;;;;;;5034102;28;19904;-39
2021/12/25 09:27:37;;;;;;;;;;;-1.90;98.40;;;;;;5032849;28;19965;-39
2021/12/25 09:30:04;;;;;;;;;;;-1.90;98.00;;;;;;5034427;28;19936;-38
2021/12/25 09:32:29;;;;;;;;;;;-1.80;98.10;;;;;;5034904;28;19978;-41
2021/12/25 09:34:55;;;;;;;;;;;-1.80;97.90;;;;;;5033892;28;20318;-40
2021/12/25 09:37:21;;;;;;;;;;;-1.70;98.30;;;;;;5034229;28;19911;-39
2021/12/25 09:39:47;;;;;;;;;;;-1.80;97.70;;;;;;5033326;28;19909;-41
2021/12/25 09:42:12;;;;;;;;;;;-1.70;97.60;;;;;;5034646;28;20280;-41
2021/12/25 09:44:38;;;;;;;;;;;-1.60;97.70;;;;;;5047123;28;19913;-40
2021/12/25 09:47:04;;;;;;;;;;;-1.60;98.00;;;;;;5041720;28;19913;-39
2021/12/25 09:49:29;;;;;;;;;;;-1.50;97.40;;;;;;5034981;28;19906;-40
2021/12/25 09:51:55;;;;;;;;;;;-1.50;98.10;;;;;;5033697;28;20443;-41
2021/12/25 09:54:21;;;;;;;;;;;-1.40;97.50;;;;;;5033470;28;19905;-40
2021/12/25 09:56:47;;;;;;;;;;;-1.40;97.20;;;;;;5033852;28;19964;-40
2021/12/25 09:59:13;;;;;;;;;;;-1.40;97.30;;;;;;5031626;28;19966;-40
2021/12/25 10:01:40;;;;;;;;;;;-1.30;97.00;;;;;;5033199;28;19909;-40
2021/12/25 10:04:07;;;;;;;;;;;-1.20;96.90;;;;;;5033574;28;20649;-41
2021/12/25 10:06:35;;;;;;;;;;;-1.20;96.50;;;;;;5033505;28;19905;-39
2021/12/25 10:09:19;;;;;;;;;;;-1.20;95.70;;;;;;5033621;28;19959;-39
2021/12/25 10:12:04;;;;;;;;;;;-1.10;96.20;;;;;;5033550;28;19917;-39
2021/12/25 10:14:30;;;;;;;;;;;-1.00;96.30;;;;;;5033895;28;19905;-39
2021/12/25 10:16:56;;;;;;;;;;;-1.00;96.40;;;;;;5034161;28;20034;-40
2021/12/25 10:19:22;;;;;;;;;;;-0.90;95.70;;;;;;5038835;28;19917;-41
2021/12/25 10:21:48;;;;;;;;;;;-0.90;94.90;;;;;;5032955;28;19905;-41
2021/12/25 10:24:18;;;;;;;;;;;-0.90;94.50;;;;;;5034028;28;19905;-39
2021/12/25 10:26:45;;;;;;;;;;;-0.80;94.90;;;;;;5033424;28;19996;-40
2021/12/25 10:29:15;;;;;;;;;;;-0.80;95.00;;;;;;5032828;28;20429;-41
2021/12/25 10:31:40;;;;;;;;;;;-0.80;94.50;;;;;;5033015;28;19959;-40
2021/12/25 10:34:16;;;;;;;;;;;-0.70;93.80;;;;;;5037182;28;19905;-41
2021/12/25 10:36:41;;;;;;;;;;;-0.60;94.70;;;;;;5040327;28;19909;-39
2021/12/25 10:39:10;;;;;;;;;;;-0.70;93.40;;;;;;5041530;28;19982;-43
2021/12/25 10:41:38;;;;;;;;;;;-0.60;94.20;;;;;;5052943;28;19942;-40
2021/12/25 10:44:11;;;;;;;;;;;-0.50;95.20;;;;;;5050062;28;19963;-41
2021/12/25 10:46:46;;;;;;;;;;;-0.50;94.20;;;;;;5032887;28;19967;-40
2021/12/25 10:49:12;;;;;;;;;;;-0.40;93.90;;;;;;5034280;28;20395;-39
2021/12/25 10:51:37;;;;;;;;;;;-0.40;92.70;;;;;;5039363;28;20059;-42
2021/12/25 10:54:03;;;;;;;;;;;-0.40;92.70;;;;;;5042140;28;19905;-41
2021/12/25 10:56:36;;;;;;;;;;;-0.40;92.50;;;;;;5031924;28;19917;-42
2021/12/25 10:59:04;;;;;;;;;;;-0.30;93.30;;;;;;5027384;28;20288;-41
2021/12/25 11:01:36;;;;;;;;;;;-0.30;93.80;;;;;;5028127;28;19916;-40
2021/12/25 11:04:01;;;;;;;;;;;-0.20;93.00;;;;;;5031973;28;19905;-41
2021/12/25 11:06:27;;;;;;;;;;;-0.10;94.10;;;;;;5032856;28;20388;-44
2021/12/25 11:08:52;;;;;;;;;;;0.00;93.30;;;;;;5041680;28;19927;-41
2021/12/25 11:11:19;;;;;;;;;;;0.00;93.70;;;;;;5031713;28;19909;-42
2021/12/25 11:13:45;;;;;;;;;;;0.00;92.70;;;;;;5032006;28;20064;-39
2021/12/25 11:16:39;;;;;;;;;;;0.00;92.90;;;;;;5032194;28;19991;-41
2021/12/25 11:19:05;;;;;;;;;;;0.10;92.90;;;;;;5031385;28;19913;-43
2021/12/25 11:21:42;;;;;;;;;;;0.10;92.90;;;;;;5032631;28;19905;-39
2021/12/25 11:24:14;;;;;;;;;;;0.10;91.70;;;;;;5031739;28;19999;-39
2021/12/25 11:26:40;;;;;;;;;;;0.20;93.00;;;;;;5032207;28;19909;-44
2021/12/25 11:29:07;;;;;;;;;;;0.30;93.50;;;;;;5031919;28;19913;-44
2021/12/25 11:31:33;;;;;;;;;;;0.30;93.00;;;;;;5031718;28;19940;-41
2021/12/25 11:33:59;;;;;;;;;;;0.20;91.50;;;;;;5032647;28;20364;-40
2021/12/25 11:36:25;;;;;;;;;;;0.20;91.20;;;;;;5032563;28;20278;-39
2021/12/25 11:38:51;;;;;;;;;;;0.20;91.00;;;;;;5034148;28;20077;-40
2021/12/25 11:41:17;;;;;;;;;;;0.30;91.20;;;;;;5032005;28;20506;-41
2021/12/25 11:43:45;;;;;;;;;;;0.20;90.60;;;;;;5031176;28;21422;-43
2021/12/25 11:46:12;;;;;;;;;;;0.20;90.80;;;;;;5029074;28;19909;-41
2021/12/25 11:48:38;;;;;;;;;;;0.30;91.60;;;;;;5028088;28;19927;-39
2021/12/25 11:51:05;;;;;;;;;;;0.30;91.10;;;;;;5027287;28;20352;-39
2021/12/25 11:58:48;;;;;;;;;;;0.50;91.70;;;;;;4996521;28;19978;-41
2021/12/25 12:01:24;;;;;;;;;;;0.50;91.30;;;;;;4990661;28;20480;-40
2021/12/25 12:03:56;;;;;;;;;;;0.50;91.50;;;;;;4992074;28;19909;-41
2021/12/25 12:06:40;;;;;;;;;;;0.50;89.10;;;;;;4996339;28;19909;-39
2021/12/25 12:09:09;;;;;;;;;;;0.50;89.70;;;;;;5000006;28;20055;-40
2021/12/25 12:11:35;;;;;;;;;;;0.50;90.40;;;;;;5003643;28;19916;-42
2021/12/25 12:14:19;;;;;;;;;;;0.50;89.80;;;;;;5011411;28;19909;-40
2021/12/25 12:16:51;;;;;;;;;;;0.40;89.30;;;;;;5011597;28;19916;-44
2021/12/25 12:19:38;;;;;;;;;;;0.40;89.80;;;;;;5001412;28;20006;-40
2021/12/25 12:22:36;;;;;;;;;;;0.40;90.30;;;;;;5008828;28;20265;-40
2021/12/25 12:25:22;;;;;;;;;;;0.50;90.60;;;;;;4991899;28;19913;-40
2021/12/25 12:27:58;;;;;;;;;;;0.50;88.70;;;;;;5002856;28;19910;-42
2021/12/25 12:30:30;;;;;;;;;;;0.50;90.20;;;;;;5010610;28;19943;-41
2021/12/25 12:32:55;;;;;;;;;;;0.40;88.70;;;;;;5002892;28;19909;-40
2021/12/25 12:35:27;;;;;;;;;;;0.50;88.90;;;;;;4995747;28;19952;-41
2021/12/25 12:37:53;;;;;;;;;;;0.50;88.30;;;;;;4991724;28;19971;-39
2021/12/25 12:40:21;;;;;;;;;;;0.50;88.30;;;;;;4991721;28;19937;-41
2021/12/25 12:42:50;;;;;;;;;;;0.60;89.20;;;;;;4993578;28;19906;-42
2021/12/25 12:45:19;;;;;;;;;;;0.60;87.30;;;;;;5003645;28;20009;-40
2021/12/25 12:48:03;;;;;;;;;;;0.60;87.00;;;;;;5015048;28;19913;-41
2021/12/25 12:50:32;;;;;;;;;;;0.50;86.40;;;;;;5015253;28;19916;-40
2021/12/25 12:52:58;;;;;;;;;;;0.50;85.80;;;;;;5015328;28;19905;-40
2021/12/25 12:55:27;;;;;;;;;;;0.50;86.50;;;;;;4997436;28;19905;-40
2021/12/25 12:58:11;;;;;;;;;;;0.50;86.50;;;;;;5013393;28;20391;-40
2021/12/25 13:00:37;;;;;;;;;;;0.50;86.60;;;;;;5030784;28;19909;-39
2021/12/25 13:03:02;;;;;;;;;;;0.50;84.60;;;;;;5034158;28;19944;-40
2021/12/25 13:05:39;;;;;;;;;;;0.50;84.90;;;;;;5033618;28;20368;-43
2021/12/25 13:08:19;;;;;;;;;;;0.60;85.40;;;;;;5036354;28;19909;-40
2021/12/25 13:10:51;;;;;;;;;;;0.60;85.50;;;;;;5035617;28;19905;-42
2021/12/25 13:13:19;;;;;;;;;;;0.60;84.60;;;;;;5034466;28;19917;-43
2021/12/25 13:15:45;;;;;;;;;;;0.60;84.50;;;;;;5016672;28;19914;-41
2021/12/25 13:18:12;;;;;;;;;;;0.70;85.80;;;;;;5015748;28;19909;-40
2021/12/25 13:20:37;;;;;;;;;;;0.70;84.10;;;;;;5015972;28;19905;-42
2021/12/25 13:23:04;;;;;;;;;;;0.80;84.60;;;;;;5017453;28;19913;-40
2021/12/25 13:25:30;;;;;;;;;;;0.70;84.70;;;;;;5036013;28;19959;-40
2021/12/25 13:27:57;;;;;;;;;;;0.70;83.90;;;;;;5035625;28;19945;-42
2021/12/25 13:30:22;;;;;;;;;;;0.80;83.90;;;;;;5035468;28;20358;-40
2021/12/25 13:32:48;;;;;;;;;;;0.80;85.20;;;;;;5033841;28;20418;-41
2021/12/25 13:35:17;;;;;;;;;;;0.80;84.40;;;;;;5018477;28;19916;-41
2021/12/25 13:37:42;;;;;;;;;;;0.90;85.60;;;;;;5015151;28;19909;-39
2021/12/25 13:40:09;;;;;;;;;;;1.00;84.30;;;;;;5015699;28;20272;-41
2021/12/25 13:42:34;;;;;;;;;;;1.10;81.20;;;;;;5017269;28;19905;-41
2021/12/25 13:45:00;;;;;;;;;;;1.20;79.80;;;;;;5016208;28;19916;-41
2021/12/25 13:47:26;;;;;;;;;;;1.30;79.50;;;;;;5015543;28;19913;-39
2021/12/25 13:49:54;;;;;;;;;;;1.40;78.70;;;;;;5015199;28;19906;-40
2021/12/25 13:52:19;;;;;;;;;;;1.40;77.10;;;;;;5015688;28;19905;-41
2021/12/25 13:54:49;;;;;;;;;;;1.50;77.60;;;;;;5033771;28;19916;-40
2021/12/25 13:57:18;;;;;;;;;;;1.50;76.60;;;;;;5034817;28;19921;-41
2021/12/25 13:59:49;;;;;;;;;;;1.50;78.10;;;;;;5029367;28;19917;-39
2021/12/25 14:02:15;;;;;;;;;;;1.50;78.10;;;;;;5026460;28;19917;-40
2021/12/25 14:04:41;;;;;;;;;;;1.50;76.80;;;;;;5015367;28;19905;-40
2021/12/25 14:07:08;;;;;;;;;;;1.60;77.20;;;;;;5014367;28;19953;-40
2021/12/25 14:09:33;;;;;;;;;;;1.70;75.70;;;;;;5015594;28;19905;-40
2021/12/25 14:11:59;;;;;;;;;;;1.80;75.70;;;;;;5014674;28;19906;-39
2021/12/25 14:14:26;;;;;;;;;;;1.80;76.20;;;;;;5026708;28;19919;-38
2021/12/25 14:16:51;;;;;;;;;;;2.00;76.50;;;;;;5015060;28;19960;-39
2021/12/25 14:19:17;;;;;;;;;;;2.00;75.40;;;;;;5014541;28;19951;-44
2021/12/25 14:21:53;;;;;;;;;;;2.00;74.30;;;;;;5018785;28;20275;-39
2021/12/25 14:24:19;;;;;;;;;;;2.00;74.00;;;;;;5014903;28;20257;-40
2021/12/25 14:26:44;;;;;;;;;;;2.10;75.80;;;;;;5014369;28;19912;-41
2021/12/25 14:29:23;;;;;;;;;;;2.00;73.90;;;;;;5014948;28;19912;-40
2021/12/25 14:31:49;;;;;;;;;;;1.90;74.50;;;;;;5014743;28;19991;-40
2021/12/25 14:34:15;;;;;;;;;;;1.60;73.50;;;;;;5014448;28;20005;-39
2021/12/25 14:36:41;;;;;;;;;;;1.30;75.00;;;;;;5017261;28;19909;-41
2021/12/25 14:39:07;;;;;;;;;;;0.90;76.40;;;;;;5020780;28;19917;-39
2021/12/25 14:41:37;;;;;;;;;;;0.60;77.70;;;;;;5013922;28;19960;-41
2021/12/25 14:44:15;;;;;;;;;;;0.40;80.30;;;;;;5014704;28;19953;-40
2021/12/25 14:46:41;;;;;;;;;;;0.20;82.30;;;;;;5014458;28;19913;-38
2021/12/25 14:49:07;;;;;;;;;;;-0.10;83.40;;;;;;5014055;28;19928;-41
2021/12/25 14:51:34;;;;;;;;;;;-0.20;85.20;;;;;;5015841;28;20345;-39
2021/12/25 14:53:59;;;;;;;;;;;-0.30;86.00;;;;;;5024586;28;20348;-38
2021/12/25 14:56:26;;;;;;;;;;;-0.50;87.50;;;;;;5013559;28;19983;-39
2021/12/25 14:59:11;;;;;;;;;;;-0.60;88.00;;;;;;5013921;28;20023;-39
2021/12/25 15:01:38;;;;;;;;;;;-0.70;89.50;;;;;;5014626;28;19951;-40
2021/12/25 15:04:10;;;;;;;;;;;-0.80;90.40;;;;;;5033797;28;19947;-39
2021/12/25 15:06:43;;;;;;;;;;;-0.90;90.90;;;;;;5033077;28;20329;-41
2021/12/25 15:09:11;;;;;;;;;;;-1.00;91.30;;;;;;5033670;28;20000;-40
2021/12/25 15:11:38;;;;;;;;;;;-1.00;91.90;;;;;;5031904;28;19905;-39
2021/12/25 15:14:06;;;;;;;;;;;-1.10;92.50;;;;;;5033834;28;19996;-40
2021/12/25 15:16:35;;;;;;;;;;;-1.20;93.00;;;;;;5032910;28;19956;-40
2021/12/25 15:19:00;;;;;;;;;;;-1.30;93.30;;;;;;5033770;28;19921;-43
2021/12/25 15:21:26;;;;;;;;;;;-1.30;93.40;;;;;;5027234;28;19905;-41
2021/12/25 15:24:07;;;;;;;;;;;-1.40;93.50;;;;;;5013262;28;20003;-41
2021/12/25 15:26:40;;;;;;;;;;;-1.40;93.40;;;;;;5013844;28;20284;-39
2021/12/25 15:29:06;;;;;;;;;;;-1.40;93.40;;;;;;5013895;28;19909;-41
2021/12/25 15:31:32;;;;;;;;;;;-1.40;93.60;;;;;;5014349;28;20376;-42
2021/12/25 15:33:59;;;;;;;;;;;-1.50;93.70;;;;;;5013511;28;19909;-40
2021/12/25 15:36:25;;;;;;;;;;;-1.60;94.00;;;;;;5013558;28;20388;-39
2021/12/25 15:38:51;;;;;;;;;;;-1.60;94.20;;;;;;5012668;28;19920;-40
2021/12/25 15:41:17;;;;;;;;;;;-1.60;94.30;;;;;;5017372;28;19944;-39